sensor_id;sensor_type;location;lat;lon;timestamp;pressure;altitude;pressure_sealevel;temperature;humidity
19811;BME280;10065;49.632;8.346;2023-02-11T00:01:15;102669.03;;;4.26;68.16
19811;BME280;10065;49.632;8.346;2023-02-11T00:03:45;102666.47;;;4.25;68.21
19811;BME280;10065;49.632;8.346;2023-02-11T00:06:13;102670.72;;;4.29;68.04
19811;BME280;10065;49.632;8.346;2023-02-11T00:08:41;102666.84;;;4.39;67.79
19811;BME280;10065;49.632;8.346;2023-02-11T00:11:13;102665.81;;;4.43;67.46
19811;BME280;10065;49.632;8.346;2023-02-11T00:13:41;102676.03;;;4.50;67.23
19811;BME280;10065;49.632;8.346;2023-02-11T00:16:11;102681.44;;;4.47;67.43
19811;BME280;10065;49.632;8.346;2023-02-11T00:18:39;102683.78;;;4.55;66.97
19811;BME280;10065;49.632;8.346;2023-02-11T00:21:07;102669.19;;;4.46;66.79
19811;BME280;10065;49.632;8.346;2023-02-11T00:23:36;102678.31;;;4.36;67.03
19811;BME280;10065;49.632;8.346;2023-02-11T00:26:04;102670.66;;;4.30;67.19
19811;BME280;10065;49.632;8.346;2023-02-11T00:28:39;102672.34;;;4.31;67.15
19811;BME280;10065;49.632;8.346;2023-02-11T00:31:06;102671.41;;;4.34;67.13
19811;BME280;10065;49.632;8.346;2023-02-11T00:33:34;102672.97;;;4.39;66.45
19811;BME280;10065;49.632;8.346;2023-02-11T00:36:03;102666.13;;;4.34;66.61
19811;BME280;10065;49.632;8.346;2023-02-11T00:38:31;102672.97;;;4.39;66.22
19811;BME280;10065;49.632;8.346;2023-02-11T00:40:59;102667.00;;;4.34;66.27
19811;BME280;10065;49.632;8.346;2023-02-11T00:43:26;102674.03;;;4.34;65.96
19811;BME280;10065;49.632;8.346;2023-02-11T00:45:55;102668.78;;;4.34;66.00
19811;BME280;10065;49.632;8.346;2023-02-11T00:48:23;102667.28;;;4.27;66.08
19811;BME280;10065;49.632;8.346;2023-02-11T00:50:51;102665.47;;;4.29;65.88
19811;BME280;10065;49.632;8.346;2023-02-11T00:53:18;102667.38;;;4.24;65.94
19811;BME280;10065;49.632;8.346;2023-02-11T00:55:46;102665.78;;;4.20;66.43
19811;BME280;10065;49.632;8.346;2023-02-11T00:58:14;102667.19;;;4.30;65.83
19811;BME280;10065;49.632;8.346;2023-02-11T01:00:42;102662.34;;;4.18;66.44
19811;BME280;10065;49.632;8.346;2023-02-11T01:03:11;102666.06;;;4.12;66.75
19811;BME280;10065;49.632;8.346;2023-02-11T01:05:39;102669.41;;;4.15;66.28
19811;BME280;10065;49.632;8.346;2023-02-11T01:08:06;102658.19;;;4.12;66.83
19811;BME280;10065;49.632;8.346;2023-02-11T01:10:34;102656.88;;;3.99;67.31
19811;BME280;10065;49.632;8.346;2023-02-11T01:13:02;102656.06;;;3.97;67.38
19811;BME280;10065;49.632;8.346;2023-02-11T01:15:29;102654.75;;;3.85;67.80
19811;BME280;10065;49.632;8.346;2023-02-11T01:17:57;102648.59;;;3.86;67.94
19811;BME280;10065;49.632;8.346;2023-02-11T01:20:27;102639.34;;;3.74;68.28
19811;BME280;10065;49.632;8.346;2023-02-11T01:22:55;102648.97;;;3.74;68.42
19811;BME280;10065;49.632;8.346;2023-02-11T01:25:23;102651.69;;;3.71;68.91
19811;BME280;10065;49.632;8.346;2023-02-11T01:27:51;102643.69;;;3.75;68.62
19811;BME280;10065;49.632;8.346;2023-02-11T01:30:18;102642.41;;;3.87;68.45
19811;BME280;10065;49.632;8.346;2023-02-11T01:32:46;102636.94;;;3.93;68.21
19811;BME280;10065;49.632;8.346;2023-02-11T01:35:14;102637.59;;;4.00;68.01
19811;BME280;10065;49.632;8.346;2023-02-11T01:37:43;102632.97;;;4.06;67.60
19811;BME280;10065;49.632;8.346;2023-02-11T01:40:15;102626.13;;;4.02;67.87
19811;BME280;10065;49.632;8.346;2023-02-11T01:42:43;102630.47;;;4.03;67.74
19811;BME280;10065;49.632;8.346;2023-02-11T01:45:41;102628.63;;;4.05;67.77
19811;BME280;10065;49.632;8.346;2023-02-11T01:48:18;102621.63;;;4.06;67.94
19811;BME280;10065;49.632;8.346;2023-02-11T01:50:50;102622.28;;;4.12;67.79
19811;BME280;10065;49.632;8.346;2023-02-11T01:53:22;102614.22;;;4.17;67.62
19811;BME280;10065;49.632;8.346;2023-02-11T01:56:07;102623.63;;;4.23;67.26
19811;BME280;10065;49.632;8.346;2023-02-11T01:58:55;102614.00;;;4.23;67.17
19811;BME280;10065;49.632;8.346;2023-02-11T02:01:26;102606.28;;;4.19;67.46
19811;BME280;10065;49.632;8.346;2023-02-11T02:03:59;102607.72;;;4.04;67.91
19811;BME280;10065;49.632;8.346;2023-02-11T02:06:32;102603.56;;;3.97;68.62
19811;BME280;10065;49.632;8.346;2023-02-11T02:09:05;102597.34;;;3.99;68.40
19811;BME280;10065;49.632;8.346;2023-02-11T02:11:34;102593.75;;;4.02;68.29
19811;BME280;10065;49.632;8.346;2023-02-11T02:14:02;102594.03;;;3.94;68.41
19811;BME280;10065;49.632;8.346;2023-02-11T02:16:32;102584.78;;;3.84;69.04
19811;BME280;10065;49.632;8.346;2023-02-11T02:19:18;102576.31;;;3.76;69.37
19811;BME280;10065;49.632;8.346;2023-02-11T02:22:14;102570.47;;;3.68;69.49
19811;BME280;10065;49.632;8.346;2023-02-11T02:25:20;102580.56;;;3.54;70.37
19811;BME280;10065;49.632;8.346;2023-02-11T02:27:54;102577.69;;;3.61;70.04
19811;BME280;10065;49.632;8.346;2023-02-11T02:30:47;102576.72;;;3.64;70.03
19811;BME280;10065;49.632;8.346;2023-02-11T02:33:35;102582.06;;;3.61;70.16
19811;BME280;10065;49.632;8.346;2023-02-11T02:36:13;102590.19;;;3.53;70.44
19811;BME280;10065;49.632;8.346;2023-02-11T02:38:47;102588.59;;;3.49;70.70
19811;BME280;10065;49.632;8.346;2023-02-11T02:41:19;102572.34;;;3.64;70.35
19811;BME280;10065;49.632;8.346;2023-02-11T02:43:50;102564.19;;;3.72;70.11
19811;BME280;10065;49.632;8.346;2023-02-11T02:46:21;102562.47;;;3.71;69.88
19811;BME280;10065;49.632;8.346;2023-02-11T02:48:52;102560.75;;;3.70;70.02
19811;BME280;10065;49.632;8.346;2023-02-11T02:51:41;102567.00;;;3.67;70.33
19811;BME280;10065;49.632;8.346;2023-02-11T02:57:37;102550.75;;;3.81;69.52
19811;BME280;10065;49.632;8.346;2023-02-11T03:00:17;102553.59;;;3.75;70.02
19811;BME280;10065;49.632;8.346;2023-02-11T03:03:02;102554.50;;;3.74;70.11
19811;BME280;10065;49.632;8.346;2023-02-11T03:05:42;102560.88;;;3.67;70.48
19811;BME280;10065;49.632;8.346;2023-02-11T03:08:17;102555.19;;;3.79;70.17
19811;BME280;10065;49.632;8.346;2023-02-11T03:10:50;102565.03;;;3.97;69.53
19811;BME280;10065;49.632;8.346;2023-02-11T03:13:25;102573.13;;;3.91;69.51
19811;BME280;10065;49.632;8.346;2023-02-11T03:15:58;102574.41;;;3.79;69.91
19811;BME280;10065;49.632;8.346;2023-02-11T03:18:28;102578.16;;;3.72;70.46
19811;BME280;10065;49.632;8.346;2023-02-11T03:20:59;102578.75;;;3.81;70.13
19811;BME280;10065;49.632;8.346;2023-02-11T03:23:32;102577.31;;;3.72;70.43
19811;BME280;10065;49.632;8.346;2023-02-11T03:26:08;102576.47;;;3.71;70.35
19811;BME280;10065;49.632;8.346;2023-02-11T03:28:42;102576.63;;;3.67;70.83
19811;BME280;10065;49.632;8.346;2023-02-11T03:31:16;102567.72;;;3.71;70.95
19811;BME280;10065;49.632;8.346;2023-02-11T03:33:53;102567.72;;;3.71;70.99
19811;BME280;10065;49.632;8.346;2023-02-11T03:36:29;102568.31;;;3.79;70.77
19811;BME280;10065;49.632;8.346;2023-02-11T03:39:00;102568.44;;;3.76;70.75
19811;BME280;10065;49.632;8.346;2023-02-11T03:41:30;102565.00;;;3.74;70.71
19811;BME280;10065;49.632;8.346;2023-02-11T03:43:58;102561.69;;;3.69;71.17
19811;BME280;10065;49.632;8.346;2023-02-11T03:46:29;102565.31;;;3.65;71.45
19811;BME280;10065;49.632;8.346;2023-02-11T03:49:01;102567.84;;;3.68;71.42
19811;BME280;10065;49.632;8.346;2023-02-11T03:51:32;102553.38;;;3.81;71.07
19811;BME280;10065;49.632;8.346;2023-02-11T03:54:03;102554.31;;;3.78;71.25
19811;BME280;10065;49.632;8.346;2023-02-11T03:56:37;102545.50;;;3.81;71.09
19811;BME280;10065;49.632;8.346;2023-02-11T03:59:06;102549.09;;;4.03;70.21
19811;BME280;10065;49.632;8.346;2023-02-11T04:01:34;102546.47;;;4.03;69.93
19811;BME280;10065;49.632;8.346;2023-02-11T04:04:02;102542.16;;;4.01;69.91
19811;BME280;10065;49.632;8.346;2023-02-11T04:06:29;102533.38;;;4.02;69.97
19811;BME280;10065;49.632;8.346;2023-02-11T04:08:58;102529.00;;;4.02;69.89
19811;BME280;10065;49.632;8.346;2023-02-11T04:11:26;102518.97;;;3.89;70.27
19811;BME280;10065;49.632;8.346;2023-02-11T04:13:54;102514.13;;;3.78;70.80
19811;BME280;10065;49.632;8.346;2023-02-11T04:16:21;102520.38;;;3.74;70.98
19811;BME280;10065;49.632;8.346;2023-02-11T04:18:49;102513.66;;;3.67;71.54
19811;BME280;10065;49.632;8.346;2023-02-11T04:21:17;102504.00;;;3.67;71.96
19811;BME280;10065;49.632;8.346;2023-02-11T04:23:45;102498.00;;;3.64;72.29
19811;BME280;10065;49.632;8.346;2023-02-11T04:26:14;102486.56;;;3.66;72.23
19811;BME280;10065;49.632;8.346;2023-02-11T04:28:41;102486.59;;;3.65;72.21
19811;BME280;10065;49.632;8.346;2023-02-11T04:31:09;102485.13;;;3.58;72.36
19811;BME280;10065;49.632;8.346;2023-02-11T04:33:38;102491.28;;;3.57;72.41
19811;BME280;10065;49.632;8.346;2023-02-11T04:36:06;102476.38;;;3.57;72.30
19811;BME280;10065;49.632;8.346;2023-02-11T04:38:34;102479.38;;;3.47;72.89
19811;BME280;10065;49.632;8.346;2023-02-11T04:41:02;102485.44;;;3.49;72.56
19811;BME280;10065;49.632;8.346;2023-02-11T04:43:30;102486.25;;;3.51;72.65
19811;BME280;10065;49.632;8.346;2023-02-11T04:45:58;102488.59;;;3.58;72.53
19811;BME280;10065;49.632;8.346;2023-02-11T04:48:26;102494.03;;;3.77;71.74
19811;BME280;10065;49.632;8.346;2023-02-11T04:50:53;102497.09;;;3.65;71.88
19811;BME280;10065;49.632;8.346;2023-02-11T04:53:21;102511.44;;;3.55;71.97
19811;BME280;10065;49.632;8.346;2023-02-11T04:55:49;102513.66;;;3.67;71.83
19811;BME280;10065;49.632;8.346;2023-02-11T04:58:18;102514.22;;;3.75;71.43
19811;BME280;10065;49.632;8.346;2023-02-11T05:00:47;102516.84;;;3.75;71.20
19811;BME280;10065;49.632;8.346;2023-02-11T05:03:15;102521.53;;;3.67;71.46
19811;BME280;10065;49.632;8.346;2023-02-11T05:05:43;102522.53;;;3.63;71.76
19811;BME280;10065;49.632;8.346;2023-02-11T05:08:11;102527.59;;;3.69;71.63
19811;BME280;10065;49.632;8.346;2023-02-11T05:10:39;102523.81;;;3.76;71.08
19811;BME280;10065;49.632;8.346;2023-02-11T05:13:07;102530.66;;;3.80;70.95
19811;BME280;10065;49.632;8.346;2023-02-11T05:15:34;102529.06;;;3.76;70.93
19811;BME280;10065;49.632;8.346;2023-02-11T05:18:04;102524.16;;;3.67;71.42
19811;BME280;10065;49.632;8.346;2023-02-11T05:20:31;102526.41;;;3.77;71.21
19811;BME280;10065;49.632;8.346;2023-02-11T05:22:59;102529.47;;;3.89;70.75
19811;BME280;10065;49.632;8.346;2023-02-11T05:25:26;102534.63;;;3.92;70.65
19811;BME280;10065;49.632;8.346;2023-02-11T05:27:54;102519.72;;;3.92;70.52
19811;BME280;10065;49.632;8.346;2023-02-11T05:30:22;102514.47;;;3.92;70.46
19811;BME280;10065;49.632;8.346;2023-02-11T05:32:50;102512.75;;;3.91;70.29
19811;BME280;10065;49.632;8.346;2023-02-11T05:35:19;102507.75;;;3.85;70.34
19811;BME280;10065;49.632;8.346;2023-02-11T05:37:47;102509.09;;;3.72;70.73
19811;BME280;10065;49.632;8.346;2023-02-11T05:40:15;102520.72;;;3.65;71.24
19811;BME280;10065;49.632;8.346;2023-02-11T05:42:43;102510.44;;;3.59;71.56
19811;BME280;10065;49.632;8.346;2023-02-11T05:45:10;102505.38;;;3.53;72.16
19811;BME280;10065;49.632;8.346;2023-02-11T05:47:38;102506.75;;;3.64;71.84
19811;BME280;10065;49.632;8.346;2023-02-11T05:50:06;102496.09;;;3.69;71.73
19811;BME280;10065;49.632;8.346;2023-02-11T05:52:35;102498.00;;;3.64;72.10
19811;BME280;10065;49.632;8.346;2023-02-11T05:55:04;102514.34;;;3.72;72.09
19811;BME280;10065;49.632;8.346;2023-02-11T05:57:31;102518.41;;;3.81;71.55
19811;BME280;10065;49.632;8.346;2023-02-11T05:59:59;102514.63;;;3.88;71.19
19811;BME280;10065;49.632;8.346;2023-02-11T06:02:27;102509.47;;;3.86;71.25
19811;BME280;10065;49.632;8.346;2023-02-11T06:04:54;102504.22;;;3.86;71.24
19811;BME280;10065;49.632;8.346;2023-02-11T06:07:22;102506.94;;;3.83;71.35
19811;BME280;10065;49.632;8.346;2023-02-11T06:09:51;102507.16;;;3.77;71.69
19811;BME280;10065;49.632;8.346;2023-02-11T06:12:19;102508.09;;;3.76;71.88
19811;BME280;10065;49.632;8.346;2023-02-11T06:14:49;102511.72;;;3.72;72.26
19811;BME280;10065;49.632;8.346;2023-02-11T06:17:17;102518.44;;;3.79;72.17
19811;BME280;10065;49.632;8.346;2023-02-11T06:19:44;102513.09;;;3.82;71.88
19811;BME280;10065;49.632;8.346;2023-02-11T06:22:12;102511.09;;;3.89;71.54
19811;BME280;10065;49.632;8.346;2023-02-11T06:24:40;102505.78;;;3.90;71.56
19811;BME280;10065;49.632;8.346;2023-02-11T06:27:28;102498.28;;;4.04;70.61
19811;BME280;10065;49.632;8.346;2023-02-11T06:29:56;102502.69;;;4.04;70.15
19811;BME280;10065;49.632;8.346;2023-02-11T06:32:25;102505.34;;;4.02;70.04
19811;BME280;10065;49.632;8.346;2023-02-11T06:35:11;102513.56;;;3.93;70.14
19811;BME280;10065;49.632;8.346;2023-02-11T06:37:40;102519.16;;;3.84;70.38
19811;BME280;10065;49.632;8.346;2023-02-11T06:40:08;102524.56;;;3.79;70.50
19811;BME280;10065;49.632;8.346;2023-02-11T06:42:37;102515.78;;;3.81;70.56
19811;BME280;10065;49.632;8.346;2023-02-11T06:45:06;102509.25;;;3.67;70.88
19811;BME280;10065;49.632;8.346;2023-02-11T06:47:35;102512.25;;;3.57;71.60
19811;BME280;10065;49.632;8.346;2023-02-11T06:50:03;102515.78;;;3.56;71.61
19811;BME280;10065;49.632;8.346;2023-02-11T06:52:31;102514.13;;;3.53;72.06
19811;BME280;10065;49.632;8.346;2023-02-11T06:54:59;102522.75;;;3.57;71.97
19811;BME280;10065;49.632;8.346;2023-02-11T06:57:28;102533.78;;;3.66;71.59
19811;BME280;10065;49.632;8.346;2023-02-11T06:59:58;102541.13;;;3.57;72.05
19811;BME280;10065;49.632;8.346;2023-02-11T07:02:25;102536.56;;;3.62;71.87
19811;BME280;10065;49.632;8.346;2023-02-11T07:04:53;102533.03;;;3.63;71.56
19811;BME280;10065;49.632;8.346;2023-02-11T07:07:21;102530.63;;;3.57;71.87
19811;BME280;10065;49.632;8.346;2023-02-11T07:09:48;102532.69;;;3.47;72.16
19811;BME280;10065;49.632;8.346;2023-02-11T07:12:16;102532.69;;;3.47;72.18
19811;BME280;10065;49.632;8.346;2023-02-11T07:14:44;102541.16;;;3.55;71.74
19811;BME280;10065;49.632;8.346;2023-02-11T07:17:13;102535.81;;;3.58;71.78
19811;BME280;10065;49.632;8.346;2023-02-11T07:19:41;102536.22;;;3.71;71.30
19811;BME280;10065;49.632;8.346;2023-02-11T07:22:09;102534.09;;;3.82;70.57
19811;BME280;10065;49.632;8.346;2023-02-11T07:24:36;102534.19;;;3.79;70.90
19811;BME280;10065;49.632;8.346;2023-02-11T07:27:04;102533.41;;;3.77;70.93
19811;BME280;10065;49.632;8.346;2023-02-11T07:29:32;102531.41;;;3.84;70.86
19811;BME280;10065;49.632;8.346;2023-02-11T07:31:59;102521.06;;;3.79;70.80
19811;BME280;10065;49.632;8.346;2023-02-11T07:34:28;102516.53;;;3.84;70.82
19811;BME280;10065;49.632;8.346;2023-02-11T07:36:56;102518.69;;;3.96;70.20
19811;BME280;10065;49.632;8.346;2023-02-11T07:39:24;102523.75;;;4.02;70.07
19811;BME280;10065;49.632;8.346;2023-02-11T07:41:52;102525.38;;;4.05;69.64
19811;BME280;10065;49.632;8.346;2023-02-11T07:44:20;102519.22;;;4.06;69.54
19811;BME280;10065;49.632;8.346;2023-02-11T07:46:48;102527.41;;;4.22;69.26
19811;BME280;10065;49.632;8.346;2023-02-11T07:49:16;102519.19;;;4.31;68.91
19811;BME280;10065;49.632;8.346;2023-02-11T07:51:45;102522.00;;;4.25;68.78
19811;BME280;10065;49.632;8.346;2023-02-11T07:54:15;102539.25;;;4.32;68.63
19811;BME280;10065;49.632;8.346;2023-02-11T07:56:43;102550.56;;;4.34;68.87
19811;BME280;10065;49.632;8.346;2023-02-11T07:59:11;102550.66;;;4.54;68.26
19811;BME280;10065;49.632;8.346;2023-02-11T08:01:39;102555.44;;;4.66;67.82
19811;BME280;10065;49.632;8.346;2023-02-11T08:04:06;102547.31;;;4.94;66.80
19811;BME280;10065;49.632;8.346;2023-02-11T08:06:38;102543.81;;;4.93;66.51
19811;BME280;10065;49.632;8.346;2023-02-11T08:09:12;102534.44;;;4.88;66.31
19811;BME280;10065;49.632;8.346;2023-02-11T08:11:41;102546.91;;;4.83;66.80
19811;BME280;10065;49.632;8.346;2023-02-11T08:14:09;102537.91;;;4.88;66.74
19811;BME280;10065;49.632;8.346;2023-02-11T08:16:37;102535.22;;;4.90;66.31
19811;BME280;10065;49.632;8.346;2023-02-11T08:19:06;102529.78;;;4.95;66.04
19811;BME280;10065;49.632;8.346;2023-02-11T08:21:34;102534.31;;;4.91;66.20
19811;BME280;10065;49.632;8.346;2023-02-11T08:24:02;102543.47;;;5.03;65.79
19811;BME280;10065;49.632;8.346;2023-02-11T08:26:32;102536.63;;;4.99;65.68
19811;BME280;10065;49.632;8.346;2023-02-11T08:29:04;102547.00;;;5.02;65.95
19811;BME280;10065;49.632;8.346;2023-02-11T08:31:34;102537.28;;;5.04;66.09
19811;BME280;10065;49.632;8.346;2023-02-11T08:34:02;102537.34;;;5.24;65.40
19811;BME280;10065;49.632;8.346;2023-02-11T08:36:32;102533.78;;;5.25;65.05
19811;BME280;10065;49.632;8.346;2023-02-11T08:39:04;102530.72;;;5.14;65.73
19811;BME280;10065;49.632;8.346;2023-02-11T08:41:51;102545.41;;;5.19;65.61
19811;BME280;10065;49.632;8.346;2023-02-11T08:44:20;102534.38;;;5.32;65.42
19811;BME280;10065;49.632;8.346;2023-02-11T08:46:48;102534.97;;;5.38;65.34
19811;BME280;10065;49.632;8.346;2023-02-11T08:49:16;102536.44;;;5.45;65.15
19811;BME280;10065;49.632;8.346;2023-02-11T08:51:44;102536.41;;;5.65;64.68
19811;BME280;10065;49.632;8.346;2023-02-11T08:54:13;102539.97;;;5.85;63.78
19811;BME280;10065;49.632;8.346;2023-02-11T08:56:41;102553.03;;;5.88;63.39
19811;BME280;10065;49.632;8.346;2023-02-11T08:59:12;102562.09;;;6.01;62.84
19811;BME280;10065;49.632;8.346;2023-02-11T09:01:40;102558.47;;;6.03;62.82
19811;BME280;10065;49.632;8.346;2023-02-11T09:04:09;102569.53;;;6.12;62.62
19811;BME280;10065;49.632;8.346;2023-02-11T09:06:37;102560.56;;;6.34;61.84
19811;BME280;10065;49.632;8.346;2023-02-11T09:09:05;102559.88;;;6.50;61.34
19811;BME280;10065;49.632;8.346;2023-02-11T09:11:34;102564.69;;;6.77;60.98
19811;BME280;10065;49.632;8.346;2023-02-11T09:14:03;102575.19;;;7.15;59.67
19811;BME280;10065;49.632;8.346;2023-02-11T09:16:34;102568.78;;;7.55;58.35
19811;BME280;10065;49.632;8.346;2023-02-11T09:19:04;102571.78;;;7.99;56.86
19811;BME280;10065;49.632;8.346;2023-02-11T09:21:32;102571.13;;;8.11;55.82
19811;BME280;10065;49.632;8.346;2023-02-11T09:24:00;102573.19;;;8.22;55.43
19811;BME280;10065;49.632;8.346;2023-02-11T09:26:30;102581.56;;;8.30;55.02
19811;BME280;10065;49.632;8.346;2023-02-11T09:28:58;102586.81;;;8.32;55.30
19811;BME280;10065;49.632;8.346;2023-02-11T09:31:27;102577.13;;;8.48;54.96
19811;BME280;10065;49.632;8.346;2023-02-11T09:33:59;102576.19;;;8.64;54.36
19811;BME280;10065;49.632;8.346;2023-02-11T09:36:28;102579.84;;;9.09;53.46
19811;BME280;10065;49.632;8.346;2023-02-11T09:38:57;102577.97;;;9.11;53.01
19811;BME280;10065;49.632;8.346;2023-02-11T09:44:19;102575.91;;;9.76;51.72
19811;BME280;10065;49.632;8.346;2023-02-11T09:46:53;102576.22;;;10.14;50.63
19811;BME280;10065;49.632;8.346;2023-02-11T09:49:32;102575.84;;;10.63;49.27
19811;BME280;10065;49.632;8.346;2023-02-11T09:52:05;102569.59;;;11.17;48.30
19811;BME280;10065;49.632;8.346;2023-02-11T09:54:38;102575.63;;;11.34;47.59
19811;BME280;10065;49.632;8.346;2023-02-11T09:57:08;102576.59;;;11.85;46.65
19811;BME280;10065;49.632;8.346;2023-02-11T09:59:54;102581.59;;;12.40;45.27
19811;BME280;10065;49.632;8.346;2023-02-11T10:02:26;102576.63;;;12.96;44.06
19811;BME280;10065;49.632;8.346;2023-02-11T10:05:19;102576.91;;;13.16;42.86
19811;BME280;10065;49.632;8.346;2023-02-11T10:07:55;102582.69;;;12.74;43.83
19811;BME280;10065;49.632;8.346;2023-02-11T10:10:35;102583.41;;;12.39;44.42
19811;BME280;10065;49.632;8.346;2023-02-11T10:13:19;102582.00;;;12.34;44.93
19811;BME280;10065;49.632;8.346;2023-02-11T10:15:56;102582.09;;;12.32;45.12
19811;BME280;10065;49.632;8.346;2023-02-11T10:18:37;102580.63;;;12.16;45.18
19811;BME280;10065;49.632;8.346;2023-02-11T10:21:16;102584.25;;;12.02;45.72
19811;BME280;10065;49.632;8.346;2023-02-11T10:23:48;102592.69;;;11.56;46.88
19811;BME280;10065;49.632;8.346;2023-02-11T10:26:18;102588.34;;;11.28;47.37
19811;BME280;10065;49.632;8.346;2023-02-11T10:28:47;102580.75;;;11.10;48.11
19811;BME280;10065;49.632;8.346;2023-02-11T10:31:21;102586.97;;;10.96;48.37
19811;BME280;10065;49.632;8.346;2023-02-11T10:33:55;102582.53;;;11.09;48.69
19811;BME280;10065;49.632;8.346;2023-02-11T10:36:28;102580.47;;;11.00;49.19
19811;BME280;10065;49.632;8.346;2023-02-11T10:38:57;102579.41;;;11.17;48.98
19811;BME280;10065;49.632;8.346;2023-02-11T10:41:31;102579.78;;;12.15;47.13
19811;BME280;10065;49.632;8.346;2023-02-11T10:44:00;102579.53;;;12.93;45.29
19811;BME280;10065;49.632;8.346;2023-02-11T10:46:30;102570.00;;;13.49;43.64
19811;BME280;10065;49.632;8.346;2023-02-11T10:48:59;102564.25;;;13.77;43.14
19811;BME280;10065;49.632;8.346;2023-02-11T10:51:31;102557.22;;;13.76;42.19
19811;BME280;10065;49.632;8.346;2023-02-11T10:54:17;102556.22;;;13.66;43.18
19811;BME280;10065;49.632;8.346;2023-02-11T10:56:48;102559.84;;;13.65;42.87
19811;BME280;10065;49.632;8.346;2023-02-11T10:59:20;102563.75;;;13.61;43.02
19811;BME280;10065;49.632;8.346;2023-02-11T11:01:52;102561.63;;;13.42;43.65
19811;BME280;10065;49.632;8.346;2023-02-11T11:04:41;102555.47;;;13.53;43.23
19811;BME280;10065;49.632;8.346;2023-02-11T11:07:21;102559.66;;;13.79;42.89
19811;BME280;10065;49.632;8.346;2023-02-11T11:09:52;102561.28;;;14.15;42.75
19811;BME280;10065;49.632;8.346;2023-02-11T11:12:27;102563.69;;;14.74;41.60
19811;BME280;10065;49.632;8.346;2023-02-11T11:14:58;102560.28;;;14.61;41.88
19811;BME280;10065;49.632;8.346;2023-02-11T11:17:26;102564.19;;;14.57;41.79
19811;BME280;10065;49.632;8.346;2023-02-11T11:20:14;102563.09;;;14.37;41.54
19811;BME280;10065;49.632;8.346;2023-02-11T11:22:43;102569.84;;;13.85;42.85
19811;BME280;10065;49.632;8.346;2023-02-11T11:25:25;102568.28;;;13.37;44.05
19811;BME280;10065;49.632;8.346;2023-02-11T11:27:55;102578.00;;;13.01;44.22
19811;BME280;10065;49.632;8.346;2023-02-11T11:30:26;102571.41;;;12.94;45.08
19811;BME280;10065;49.632;8.346;2023-02-11T11:32:57;102565.34;;;13.40;44.92
19811;BME280;10065;49.632;8.346;2023-02-11T11:35:27;102559.47;;;13.59;43.87
19811;BME280;10065;49.632;8.346;2023-02-11T11:37:59;102555.47;;;13.18;44.33
19811;BME280;10065;49.632;8.346;2023-02-11T11:40:29;102559.03;;;12.69;44.92
19811;BME280;10065;49.632;8.346;2023-02-11T11:43:03;102561.47;;;12.23;46.27
19811;BME280;10065;49.632;8.346;2023-02-11T11:45:31;102569.78;;;11.81;47.13
19811;BME280;10065;49.632;8.346;2023-02-11T11:48:02;102565.16;;;11.57;48.69
19811;BME280;10065;49.632;8.346;2023-02-11T11:50:34;102565.09;;;11.32;49.05
19811;BME280;10065;49.632;8.346;2023-02-11T11:53:10;102561.28;;;11.09;49.29
19811;BME280;10065;49.632;8.346;2023-02-11T11:55:43;102566.22;;;10.88;50.04
19811;BME280;10065;49.632;8.346;2023-02-11T11:58:14;102556.56;;;10.73;50.59
19811;BME280;10065;49.632;8.346;2023-02-11T12:00:52;102560.66;;;10.65;51.62
19811;BME280;10065;49.632;8.346;2023-02-11T12:06:40;102549.19;;;10.78;51.41
19811;BME280;10065;49.632;8.346;2023-02-11T12:09:19;102551.88;;;10.91;51.79
19811;BME280;10065;49.632;8.346;2023-02-11T12:12:01;102545.34;;;10.97;51.81
19811;BME280;10065;49.632;8.346;2023-02-11T12:14:39;102536.44;;;10.98;52.44
19811;BME280;10065;49.632;8.346;2023-02-11T12:17:16;102540.38;;;11.05;52.15
19811;BME280;10065;49.632;8.346;2023-02-11T12:20:06;102546.53;;;11.05;52.45
19811;BME280;10065;49.632;8.346;2023-02-11T12:22:48;102544.06;;;11.02;52.27
19811;BME280;10065;49.632;8.346;2023-02-11T12:25:25;102547.41;;;10.91;51.77
19811;BME280;10065;49.632;8.346;2023-02-11T12:28:02;102552.59;;;10.80;52.70
19811;BME280;10065;49.632;8.346;2023-02-11T12:30:51;102548.44;;;10.76;52.30
19811;BME280;10065;49.632;8.346;2023-02-11T12:33:33;102542.00;;;10.66;52.73
19811;BME280;10065;49.632;8.346;2023-02-11T12:36:24;102547.72;;;10.60;53.78
19811;BME280;10065;49.632;8.346;2023-02-11T12:39:10;102535.97;;;10.50;53.61
19811;BME280;10065;49.632;8.346;2023-02-11T12:42:00;102533.53;;;10.33;54.08
19811;BME280;10065;49.632;8.346;2023-02-11T12:45:03;102552.84;;;10.21;54.85
19811;BME280;10065;49.632;8.346;2023-02-11T12:47:41;102546.50;;;10.09;55.61
19811;BME280;10065;49.632;8.346;2023-02-11T12:50:17;102546.97;;;10.01;55.92
19811;BME280;10065;49.632;8.346;2023-02-11T12:53:00;102543.56;;;9.99;55.21
19811;BME280;10065;49.632;8.346;2023-02-11T12:55:39;102543.66;;;9.98;56.14
19811;BME280;10065;49.632;8.346;2023-02-11T12:58:13;102542.78;;;9.97;57.29
19811;BME280;10065;49.632;8.346;2023-02-11T13:00:46;102540.16;;;9.97;57.04
19811;BME280;10065;49.632;8.346;2023-02-11T13:03:20;102530.94;;;10.03;55.99
19811;BME280;10065;49.632;8.346;2023-02-11T13:05:53;102526.16;;;10.09;56.51
19811;BME280;10065;49.632;8.346;2023-02-11T13:08:26;102519.69;;;10.13;57.08
19811;BME280;10065;49.632;8.346;2023-02-11T13:10:57;102525.94;;;10.12;57.58
19811;BME280;10065;49.632;8.346;2023-02-11T13:13:32;102531.25;;;10.12;57.29
19811;BME280;10065;49.632;8.346;2023-02-11T13:16:03;102524.06;;;10.00;57.36
19811;BME280;10065;49.632;8.346;2023-02-11T13:18:44;102520.28;;;9.90;57.29
19811;BME280;10065;49.632;8.346;2023-02-11T13:21:28;102520.84;;;9.81;57.09
19811;BME280;10065;49.632;8.346;2023-02-11T13:24:06;102514.00;;;9.77;56.72
19811;BME280;10065;49.632;8.346;2023-02-11T13:26:41;102511.75;;;9.71;57.51
19811;BME280;10065;49.632;8.346;2023-02-11T13:29:22;102519.84;;;9.68;58.23
19811;BME280;10065;49.632;8.346;2023-02-11T13:31:54;102521.69;;;9.67;58.04